Time;durP1;ratioP1;P1;durP2;ratioP2;P2;SDS_P1;SDS_P2;PMS_P1;PMS_P2;Temp;Humidity;BMP_temperature;BMP_pressure;BME280_temperature;BME280_humidity;BME280_pressure;Samples;Min_cycle;Max_cycle;Signal;HPM_P1;HPM_P2
2022/12/01 00:01:08;;;;;;;25.17;6.35;;;;;;;9.65;55.49;100979.25;5031280;28;20048;-78
2022/12/01 00:03:53;;;;;;;10.98;6.05;;;;;;;9.58;56.34;100981.56;5032372;28;20064;-79
2022/12/01 00:06:37;;;;;;;6.38;4.07;;;;;;;9.65;56.05;100979.25;5031787;28;20501;-78
2022/12/01 00:12:27;;;;;;;11.18;6.53;;;;;;;9.46;56.95;100982.06;5029359;28;20036;-78
2022/12/01 00:15:12;;;;;;;9.90;5.53;;;;;;;9.56;56.38;100976.44;5030663;28;20053;-78
2022/12/01 00:17:58;;;;;;;9.40;5.07;;;;;;;9.32;56.65;100968.47;5031363;28;20055;-78
2022/12/01 00:20:43;;;;;;;20.40;6.30;;;;;;;9.05;58.12;100973.84;5046624;28;20056;-77
2022/12/01 00:23:28;;;;;;;11.98;4.68;;;;;;;9.32;56.93;100967.69;5030888;28;20064;-78
2022/12/01 00:26:13;;;;;;;14.73;6.20;;;;;;;9.23;57.04;100973.00;5034577;28;20049;-80
2022/12/01 00:28:58;;;;;;;13.23;6.35;;;;;;;9.48;56.57;100973.63;5029090;28;20068;-77
2022/12/01 00:31:43;;;;;;;36.30;7.85;;;;;;;9.47;56.48;100972.00;5028739;28;20053;-78
2022/12/01 00:34:28;;;;;;;17.70;5.68;;;;;;;9.37;57.12;100973.00;5034258;28;20064;-77
2022/12/01 00:37:13;;;;;;;11.32;4.80;;;;;;;9.42;57.77;100976.44;5033431;28;20076;-78
2022/12/01 00:39:59;;;;;;;9.10;4.75;;;;;;;9.33;56.94;100975.53;5034345;28;20408;-78
2022/12/01 00:42:43;;;;;;;;;;;;;;;9.36;56.66;100977.63;5039388;28;20531;-77
2022/12/01 00:45:28;;;;;;;13.30;6.18;;;;;;;9.19;57.67;100979.31;5053301;22;19930;-80
2022/12/01 00:48:12;;;;;;;7.93;4.90;;;;;;;9.41;57.77;100972.09;5031595;28;20052;-80
2022/12/01 00:50:57;;;;;;;9.60;5.75;;;;;;;9.31;57.63;100980.44;5035296;28;20048;-80
2022/12/01 00:53:41;;;;;;;7.60;5.30;;;;;;;9.65;55.64;100976.53;5024656;28;20066;-79
2022/12/01 00:56:26;;;;;;;10.95;6.22;;;;;;;9.74;55.50;100988.31;5024437;28;20295;-80
2022/12/01 00:59:11;;;;;;;6.63;4.65;;;;;;;9.57;55.99;100985.38;5033402;28;20045;-81
2022/12/01 01:01:56;;;;;;;;;;;;;;;9.62;55.91;100998.84;5046104;28;20562;-79
2022/12/01 01:04:40;;;;;;;11.55;5.95;;;;;;;9.77;55.29;100996.63;5041981;28;20392;-80
2022/12/01 01:07:25;;;;;;;6.70;4.65;;;;;;;9.69;55.67;100996.56;5041471;28;20042;-80
2022/12/01 01:10:11;;;;;;;10.70;4.80;;;;;;;9.56;56.60;101000.84;5039003;28;20052;-80
2022/12/01 01:12:55;;;;;;;8.73;5.50;;;;;;;9.65;55.96;101000.97;5042220;28;20048;-80
2022/12/01 01:15:40;;;;;;;9.70;4.97;;;;;;;9.88;55.05;100997.25;5040858;28;20056;-79
2022/12/01 01:18:25;;;;;;;10.80;6.18;;;;;;;9.93;55.53;100999.03;5042481;28;20044;-80
2022/12/01 01:21:13;;;;;;;6.85;4.25;;;;;;;9.80;55.00;100997.97;5046730;28;20511;-81
2022/12/01 01:23:58;;;;;;;11.15;5.80;;;;;;;9.44;56.21;101011.41;5044072;28;20523;-81
2022/12/01 01:26:42;;;;;;;10.65;6.40;;;;;;;9.40;56.57;101002.25;5032751;28;20053;-80
2022/12/01 01:29:27;;;;;;;7.13;4.65;;;;;;;9.67;55.97;100998.75;5032105;28;20045;-80
2022/12/01 01:32:12;;;;;;;7.30;5.32;;;;;;;9.60;55.88;100999.16;5040876;28;20049;-80
2022/12/01 01:34:56;;;;;;;7.50;4.45;;;;;;;9.61;56.35;101003.47;5038816;28;20044;-81
2022/12/01 01:37:41;;;;;;;10.07;5.32;;;;;;;9.43;57.57;101002.47;5043088;28;20543;-81
2022/12/01 01:40:26;;;;;;;9.82;6.13;;;;;;;9.56;57.21;100991.91;5040498;28;20404;-81
2022/12/01 01:43:16;;;;;;;7.90;4.65;;;;;;;9.77;56.22;100993.91;5038642;28;20053;-80
2022/12/01 01:46:00;;;;;;;14.98;6.00;;;;;;;9.69;56.56;101001.97;5037575;28;20052;-79
2022/12/01 01:48:57;;;;;;;7.80;4.55;;;;;;;9.83;56.18;100997.34;5040941;28;20068;-79
2022/12/01 01:51:51;;;;;;;13.77;5.93;;;;;;;9.79;56.49;101001.78;5035059;28;20117;-80
2022/12/01 01:54:40;;;;;;;11.30;7.10;;;;;;;9.72;56.51;100996.75;5039956;28;20044;-81
2022/12/01 01:57:29;;;;;;;9.05;6.85;;;;;;;9.73;56.93;101000.25;5039309;28;20045;-80
2022/12/01 02:00:17;;;;;;;10.32;6.07;;;;;;;9.78;56.45;100994.72;5042887;28;20052;-80
2022/12/01 02:03:03;;;;;;;11.23;6.75;;;;;;;9.86;56.56;100994.00;5039235;28;20421;-80
2022/12/01 02:05:48;;;;;;;8.25;4.78;;;;;;;9.78;56.43;100994.72;5039078;28;20065;-80
2022/12/01 02:08:34;;;;;;;8.02;5.82;;;;;;;9.80;57.14;100995.25;5036753;28;20767;-80
2022/12/01 02:11:25;;;;;;;9.27;5.78;;;;;;;9.58;57.92;100984.28;5040391;28;20056;-81
2022/12/01 02:15:00;;;;;;;10.85;6.20;;;;;;;9.40;58.93;100992.19;5030440;28;20044;-80
2022/12/01 02:18:05;;;;;;;8.98;5.50;;;;;;;9.59;58.16;100991.31;5041452;28;20048;-81
2022/12/01 02:21:17;;;;;;;14.77;6.03;;;;;;;9.48;58.86;100987.19;5038367;28;20048;-80
2022/12/01 02:24:17;;;;;;;9.65;5.22;;;;;;;9.31;59.42;100991.28;5039058;28;20052;-80
2022/12/01 02:27:35;;;;;;;13.60;6.00;;;;;;;9.31;59.52;100988.56;5024446;28;20507;-80
2022/12/01 02:30:36;;;;;;;10.30;5.45;;;;;;;9.64;57.81;100992.03;5037842;28;20056;-81
2022/12/01 02:33:36;;;;;;;16.45;6.60;;;;;;;9.56;57.72;100981.03;5047464;28;20057;-81
2022/12/01 02:36:36;;;;;;;11.00;5.40;;;;;;;9.27;58.21;100987.56;5039023;28;20056;-81
2022/12/01 02:39:43;;;;;;;15.35;6.00;;;;;;;9.51;57.52;100989.28;5037287;28;20408;-81
2022/12/01 02:43:01;;;;;;;9.13;5.80;;;;;;;9.15;58.91;100979.09;5031870;28;20424;-81
2022/12/01 02:46:17;;;;;;;11.15;6.65;;;;;;;8.91;60.04;100970.31;5034460;28;20048;-81
2022/12/01 02:49:09;;;;;;;7.93;4.50;;;;;;;8.89;60.37;100975.22;5039959;28;20064;-81
2022/12/01 02:51:57;;;;;;;12.55;5.95;;;;;;;9.11;59.39;100978.09;5036977;28;20533;-79
2022/12/01 02:54:44;;;;;;;8.77;5.57;;;;;;;9.12;59.51;100981.63;5041427;28;20053;-80
2022/12/01 02:57:29;;;;;;;18.52;7.10;;;;;;;9.21;59.04;100982.53;5037783;28;20418;-78
2022/12/01 03:00:15;;;;;;;14.27;6.68;;;;;;;8.94;60.14;100975.13;5036997;28;20052;-80
2022/12/01 03:03:21;;;;;;;11.02;5.82;;;;;;;8.99;60.19;100975.84;5037481;28;20060;-80
2022/12/01 03:06:27;;;;;;;8.90;5.90;;;;;;;9.23;59.35;100975.72;5037889;28;20056;-80
2022/12/01 03:09:27;;;;;;;13.38;6.90;;;;;;;9.22;58.74;100976.81;5038007;28;20048;-80
2022/12/01 03:12:33;;;;;;;10.75;6.22;;;;;;;9.31;58.22;100977.72;5037800;28;20068;-80
2022/12/01 03:15:34;;;;;;;14.15;8.23;;;;;;;9.10;59.08;100972.97;5037570;28;20420;-80
2022/12/01 03:18:39;;;;;;;8.57;5.05;;;;;;;8.95;59.72;100972.13;5039028;28;20056;-80
2022/12/01 03:21:55;;;;;;;12.98;6.30;;;;;;;8.83;59.44;100971.81;5038575;28;20044;-80
2022/12/01 03:24:42;;;;;;;;;;;;;;;8.78;60.67;100981.94;5038666;28;20052;-79
2022/12/01 03:27:32;;;;;;;12.85;6.57;;;;;;;8.72;61.18;100975.00;5039032;28;19913;-79
2022/12/01 03:30:17;;;;;;;11.90;7.20;;;;;;;8.77;59.79;100964.06;5038233;28;20044;-80
2022/12/01 03:33:09;;;;;;;8.27;5.22;;;;;;;8.49;60.78;100972.06;5037875;28;20405;-79
2022/12/01 03:36:08;;;;;;;12.23;7.18;;;;;;;8.24;62.37;100967.00;5036257;28;20040;-80
2022/12/01 03:38:59;;;;;;;12.30;6.68;;;;;;;8.29;62.14;100963.41;5037882;28;20401;-80
2022/12/01 03:41:55;;;;;;;10.57;6.43;;;;;;;8.22;63.63;100965.72;5037859;28;20048;-80
2022/12/01 03:44:54;;;;;;;10.45;6.65;;;;;;;8.23;63.04;100967.31;5037562;28;20048;-80
2022/12/01 03:47:39;;;;;;;10.43;6.32;;;;;;;8.36;62.47;100967.41;5038933;28;20045;-80
2022/12/01 03:50:37;;;;;;;12.40;6.50;;;;;;;8.69;60.61;100967.44;5037202;28;20056;-80
2022/12/01 03:53:28;;;;;;;10.73;5.72;;;;;;;8.98;59.94;100970.75;5039657;28;20053;-80
2022/12/01 03:56:16;;;;;;;10.63;6.45;;;;;;;9.14;59.46;100966.66;5039815;28;20049;-80
2022/12/01 03:59:04;;;;;;;9.70;5.72;;;;;;;9.33;58.61;100966.56;5043578;28;20052;-80
2022/12/01 04:01:49;;;;;;;17.38;7.03;;;;;;;9.28;58.80;100972.91;5038911;28;20051;-80
2022/12/01 04:04:34;;;;;;;11.57;6.65;;;;;;;9.18;58.46;100975.00;5038766;28;20048;-80
2022/12/01 04:07:19;;;;;;;;;;;;;;;9.17;58.29;100973.38;5043194;28;20044;-80
2022/12/01 04:10:06;;;;;;;13.15;5.68;;;;;;;8.86;58.80;100968.50;5041131;28;20288;-80
2022/12/01 04:12:57;;;;;;;12.82;6.15;;;;;;;8.59;59.71;100968.41;5037805;28;20048;-79
2022/12/01 04:15:42;;;;;;;8.32;5.53;;;;;;;8.48;60.91;100975.09;5037983;28;20049;-80
2022/12/01 04:18:27;;;;;;;10.07;5.00;;;;;;;8.31;60.85;100974.81;5039813;28;20052;-79
2022/12/01 04:21:11;;;;;;;11.40;6.05;;;;;;;8.31;60.74;100978.31;5036533;28;20048;-80
2022/12/01 04:23:59;;;;;;;11.13;5.22;;;;;;;8.10;60.88;100972.38;5043181;28;20044;-81
2022/12/01 04:26:44;;;;;;;7.80;5.10;;;;;;;8.27;60.91;100979.19;5037203;28;20044;-80
2022/12/01 04:29:29;;;;;;;9.48;5.22;;;;;;;8.52;59.48;100976.13;5039600;28;20436;-80
2022/12/01 04:32:14;;;;;;;12.73;5.80;;;;;;;8.74;58.15;100981.72;5035914;28;20064;-81
2022/12/01 04:34:59;;;;;;;5.75;3.38;;;;;;;8.81;57.61;100976.72;5042485;28;20068;-79
2022/12/01 04:37:44;;;;;;;;;;;;;;;8.69;58.16;100976.38;5040003;28;20052;-81
2022/12/01 04:40:28;;;;;;;6.22;4.90;;;;;;;8.63;57.89;100974.06;5038550;28;19938;-81
2022/12/01 04:43:13;;;;;;;6.35;3.30;;;;;;;8.46;58.90;100969.97;5042954;28;20444;-79
2022/12/01 04:45:58;;;;;;;5.28;3.42;;;;;;;8.61;58.44;100971.63;5041021;28;20048;-81
2022/12/01 04:48:43;;;;;;;7.95;4.68;;;;;;;8.55;58.11;100968.19;5039610;28;20068;-81
2022/12/01 04:51:28;;;;;;;6.57;4.68;;;;;;;8.62;57.80;100980.56;5043530;28;20052;-81
2022/12/01 04:54:13;;;;;;;5.50;3.75;;;;;;;8.55;58.27;100970.91;5039445;28;20052;-80
2022/12/01 04:56:58;;;;;;;7.82;5.28;;;;;;;8.31;59.10;100974.81;5039177;28;20044;-81
2022/12/01 04:59:43;;;;;;;7.70;4.13;;;;;;;8.48;58.51;100970.47;5039083;28;20067;-81
2022/12/01 05:02:27;;;;;;;7.15;4.63;;;;;;;8.63;57.68;100961.31;5039710;28;20045;-81
2022/12/01 05:05:12;;;;;;;6.78;4.20;;;;;;;8.62;57.70;100969.72;5037356;28;20504;-80
2022/12/01 05:07:58;;;;;;;8.40;4.68;;;;;;;8.74;57.39;100970.06;5040316;28;20041;-79
2022/12/01 05:10:42;;;;;;;6.47;4.30;;;;;;;8.57;57.55;100968.72;5036620;28;20052;-79
2022/12/01 05:13:27;;;;;;;11.00;5.80;;;;;;;8.37;58.38;100971.75;5051063;28;20052;-79
2022/12/01 05:16:16;;;;;;;8.18;4.63;;;;;;;8.46;58.03;100975.38;5037516;28;20064;-80
2022/12/01 05:22:08;;;;;;;10.18;6.13;;;;;;;8.31;58.74;100980.22;5034282;28;20095;-79
2022/12/01 05:24:53;;;;;;;13.13;7.47;;;;;;;8.63;57.40;100979.47;5043610;28;20040;-80
2022/12/01 05:27:37;;;;;;;15.63;7.88;;;;;;;8.70;57.03;100979.88;5039880;28;20040;-80
2022/12/01 05:30:22;;;;;;;10.48;6.60;;;;;;;8.74;56.43;100983.59;5019487;28;20520;-79
2022/12/01 05:33:07;;;;;;;7.20;4.75;;;;;;;8.77;56.87;100988.47;5023105;28;20056;-78
2022/12/01 05:35:53;;;;;;;6.60;4.53;;;;;;;8.70;57.13;100985.31;5049876;28;20527;-79
2022/12/01 05:38:38;;;;;;;14.57;7.80;;;;;;;8.65;56.85;100979.97;5040279;28;20053;-80
2022/12/01 05:41:23;;;;;;;18.33;5.85;;;;;;;8.23;58.44;100989.78;5039091;28;20048;-81
2022/12/01 05:44:07;;;;;;;10.73;6.03;;;;;;;7.95;59.34;100985.31;5043104;28;20531;-81
2022/12/01 05:46:52;;;;;;;9.43;5.82;;;;;;;8.02;59.77;100989.28;5035178;28;20049;-81
2022/12/01 05:49:36;;;;;;;8.30;5.22;;;;;;;7.95;61.28;100985.31;5036145;28;20049;-80
2022/12/01 05:52:21;;;;;;;5.70;3.80;;;;;;;7.85;60.56;100985.44;5044001;28;20052;-80
2022/12/01 05:55:06;;;;;;;7.78;5.35;;;;;;;7.68;61.66;100981.28;5042171;28;20053;-80
2022/12/01 05:57:50;;;;;;;6.53;4.53;;;;;;;7.84;62.57;100983.81;5039741;28;20056;-80
2022/12/01 06:00:36;;;;;;;;;;;;;;;7.86;62.04;100987.06;5039864;28;20052;-80
2022/12/01 06:03:21;;;;;;;8.27;5.97;;;;;;;7.65;62.14;100984.59;5040302;28;19913;-80
2022/12/01 06:06:06;;;;;;;8.60;4.65;;;;;;;7.82;60.81;100981.41;5038692;28;20412;-80
2022/12/01 06:08:51;;;;;;;;;;;;;;;7.87;60.58;100989.47;5042640;28;20048;-80
2022/12/01 06:11:36;;;;;;;10.02;5.65;;;;;;;8.10;59.40;100983.19;5041414;28;19917;-80
2022/12/01 06:14:20;;;;;;;9.48;5.38;;;;;;;8.07;60.76;100986.50;5048412;28;20420;-80
2022/12/01 06:17:05;;;;;;;9.98;5.80;;;;;;;8.23;60.43;100991.72;5037132;28;20048;-81
2022/12/01 06:19:49;;;;;;;10.85;6.68;;;;;;;8.04;59.63;100989.78;5038542;28;20048;-80
2022/12/01 06:22:34;;;;;;;10.75;4.63;;;;;;;8.32;58.78;100989.97;5038413;28;20057;-80
2022/12/01 06:25:19;;;;;;;14.18;6.07;;;;;;;8.54;58.29;100995.59;5041142;28;20049;-80
2022/12/01 06:28:04;;;;;;;13.52;5.78;;;;;;;8.66;57.26;100995.13;5035818;28;20048;-80
2022/12/01 06:30:49;;;;;;;7.60;4.45;;;;;;;8.64;56.91;101003.56;5039766;28;20049;-81
2022/12/01 06:33:33;;;;;;;15.57;6.57;;;;;;;8.69;57.19;100999.97;5032717;28;20048;-81
2022/12/01 06:36:18;;;;;;;41.20;6.10;;;;;;;8.47;58.64;101001.41;5032598;28;20048;-81
2022/12/01 06:39:09;;;;;;;;;;;;;;;8.21;58.91;101000.13;5031452;28;20048;-81
2022/12/01 06:41:54;;;;;;;15.80;6.07;;;;;;;7.97;59.74;100996.66;5038543;28;19917;-81
2022/12/01 06:44:39;;;;;;;23.35;5.40;;;;;;;8.24;59.18;101002.22;5033561;28;20045;-82
2022/12/01 06:47:24;;;;;;;8.40;4.18;;;;;;;8.31;58.91;100996.50;5035832;28;20040;-81
2022/12/01 06:50:10;;;;;;;14.30;6.25;;;;;;;8.41;58.36;101009.88;5028047;28;20049;-82
2022/12/01 06:53:09;;;;;;;12.07;6.30;;;;;;;8.61;57.76;101009.59;4972058;28;20537;-85
2022/12/01 06:56:04;;;;;;;8.60;4.53;;;;;;;8.28;58.78;101014.09;4975446;28;20050;-86
2022/12/01 06:59:23;;;;;;;21.63;4.38;;;;;;;8.21;59.25;101013.66;4980376;28;20054;-86
2022/12/01 07:02:11;;;;;;;12.40;5.43;;;;;;;8.24;60.08;101009.53;4960798;28;20046;-80
2022/12/01 07:04:56;;;;;;;16.02;6.85;;;;;;;8.06;60.42;101014.66;4988090;28;20049;-80
2022/12/01 07:07:40;;;;;;;11.38;6.50;;;;;;;7.91;60.55;101019.47;4978224;28;20046;-83
2022/12/01 07:10:26;;;;;;;10.15;6.05;;;;;;;8.01;60.83;101008.50;4977594;28;20062;-84
2022/12/01 07:13:11;;;;;;;18.10;6.47;;;;;;;7.98;60.38;101014.50;4980503;28;20050;-82
2022/12/01 07:15:56;;;;;;;16.57;6.37;;;;;;;7.93;60.00;101025.38;4970022;28;20049;-84
2022/12/01 07:18:43;;;;;;;12.38;7.03;;;;;;;8.15;59.76;101015.63;4983023;28;20297;-83
2022/12/01 07:21:27;;;;;;;15.50;7.80;;;;;;;8.24;59.66;101018.47;4994294;28;20053;-85
2022/12/01 07:24:16;;;;;;;16.05;6.50;;;;;;;8.34;58.97;101022.97;4975044;28;20050;-85
2022/12/01 07:27:02;;;;;;;11.75;7.03;;;;;;;8.44;59.15;101020.94;4968708;28;20046;-85
2022/12/01 07:29:49;;;;;;;13.23;7.93;;;;;;;8.33;59.23;101024.88;4984400;28;20046;-84
2022/12/01 07:32:33;;;;;;;11.40;7.68;;;;;;;8.36;59.11;101024.31;4971057;28;20047;-86
2022/12/01 07:35:19;;;;;;;;;;;;;;;8.40;58.88;101029.94;4968505;28;20046;-85
2022/12/01 07:38:03;;;;;;;18.00;8.30;;;;;;;8.47;59.16;101033.09;4975194;28;20294;-84
2022/12/01 07:40:48;;;;;;;32.25;12.00;;;;;;;8.50;59.17;101032.50;4979988;28;20058;-86
2022/12/01 07:43:34;;;;;;;19.70;10.02;;;;;;;8.48;59.61;101027.38;4970396;28;20070;-84
2022/12/01 07:46:21;;;;;;;11.45;6.78;;;;;;;8.43;60.01;101035.56;4982247;28;20426;-83
2022/12/01 07:49:07;;;;;;;11.80;6.85;;;;;;;8.62;59.89;101042.91;4982305;28;20054;-83
2022/12/01 07:51:51;;;;;;;14.93;7.80;;;;;;;8.78;59.11;101041.59;4976903;28;20086;-84
2022/12/01 07:54:36;;;;;;;12.18;7.28;;;;;;;9.01;57.75;101051.50;4981787;28;20045;-84
2022/12/01 07:57:22;;;;;;;12.07;6.10;;;;;;;8.94;58.12;101040.22;4976198;28;20054;-82
2022/12/01 08:00:10;;;;;;;21.13;8.13;;;;;;;8.92;58.65;101045.97;4979170;28;20050;-83
2022/12/01 08:02:56;;;;;;;17.35;7.68;;;;;;;9.02;58.75;101048.50;4975911;28;20050;-82
2022/12/01 08:05:41;;;;;;;13.27;5.47;;;;;;;9.04;58.40;101045.47;4981354;28;20054;-82
2022/12/01 08:08:26;;;;;;;14.23;7.13;;;;;;;9.04;58.42;101042.78;4982050;28;20041;-83
2022/12/01 08:11:14;;;;;;;10.77;5.50;;;;;;;9.14;58.26;101049.97;4967863;28;20529;-83
2022/12/01 08:13:58;;;;;;;20.83;7.15;;;;;;;9.14;57.57;101039.91;4976169;28;20398;-83
2022/12/01 08:16:43;;;;;;;15.30;7.32;;;;;;;9.14;57.93;101048.06;4975696;28;20054;-82
2022/12/01 08:19:28;;;;;;;13.02;7.55;;;;;;;9.26;58.31;101042.94;4980681;28;20042;-82
2022/12/01 08:22:13;;;;;;;30.50;6.05;;;;;;;9.32;58.18;101035.53;4972952;28;20410;-83
2022/12/01 08:24:58;;;;;;;9.05;5.57;;;;;;;9.30;57.42;101049.38;4967515;28;20053;-82
2022/12/01 08:27:43;;;;;;;17.15;7.00;;;;;;;9.39;57.51;101044.91;4980261;28;20537;-83
2022/12/01 08:30:27;;;;;;;18.30;7.82;;;;;;;9.53;57.13;101038.66;4979200;28;20050;-83
2022/12/01 08:33:12;;;;;;;10.73;4.70;;;;;;;9.62;56.67;101047.72;4977641;28;20050;-83
2022/12/01 08:36:01;;;;;;;15.07;6.03;;;;;;;9.66;56.49;101041.38;4980291;28;20050;-82
2022/12/01 08:38:47;;;;;;;18.38;7.20;;;;;;;9.81;55.94;101043.00;4979016;28;20057;-83
2022/12/01 08:41:32;;;;;;;12.32;6.82;;;;;;;9.93;55.68;101037.88;4975843;28;20049;-81
2022/12/01 08:44:17;;;;;;;7.32;5.05;;;;;;;10.12;55.30;101049.44;4975051;28;20054;-84
2022/12/01 08:47:02;;;;;;;13.18;4.05;;;;;;;10.29;54.58;101049.66;4973445;28;20069;-85
2022/12/01 08:49:47;;;;;;;;;;;;;;;10.34;54.59;101053.34;4974775;28;20054;-82
2022/12/01 08:52:32;;;;;;;13.45;7.07;;;;;;;10.53;54.18;101049.38;4973986;28;19913;-84
2022/12/01 08:55:17;;;;;;;12.77;6.55;;;;;;;10.60;53.33;101048.97;4980613;28;20050;-81
2022/12/01 08:58:02;;;;;;;13.43;6.13;;;;;;;10.65;53.57;101051.56;4976518;28;20050;-80
2022/12/01 09:00:47;;;;;;;;;;;;;;;10.61;53.70;101048.66;4978498;28;20057;-81
2022/12/01 09:03:32;;;;;;;27.08;10.60;;;;;;;10.74;53.70;101052.44;4985873;28;19914;-82
2022/12/01 09:06:19;;;;;;;28.40;9.02;;;;;;;10.74;53.36;101047.00;4979811;28;20049;-81
2022/12/01 09:09:04;;;;;;;24.05;10.68;;;;;;;10.84;53.31;101049.47;4983207;28;20528;-81
2022/12/01 09:11:51;;;;;;;18.15;8.90;;;;;;;10.96;53.37;101047.03;4979229;28;20058;-81
2022/12/01 09:14:38;;;;;;;23.90;8.18;;;;;;;11.22;53.07;101046.38;4981684;28;20436;-80
2022/12/01 09:17:22;;;;;;;16.23;7.75;;;;;;;11.32;51.63;101046.13;4980124;28;20073;-80
2022/12/01 09:20:08;;;;;;;14.40;7.75;;;;;;;11.55;50.38;101043.03;4977455;28;20062;-81
2022/12/01 09:22:54;;;;;;;13.85;7.72;;;;;;;11.71;50.37;101043.41;4981304;28;20054;-82
2022/12/01 09:25:39;;;;;;;13.85;7.65;;;;;;;11.70;49.32;101049.19;4977405;28;20065;-81
2022/12/01 09:28:23;;;;;;;11.38;6.78;;;;;;;11.65;48.66;101050.13;4982719;28;20406;-80
2022/12/01 09:31:10;;;;;;;7.28;4.68;;;;;;;11.71;48.45;101046.16;4979835;28;20127;-80
2022/12/01 09:34:05;;;;;;;17.73;6.90;;;;;;;11.68;48.29;101046.78;4982768;28;20054;-80
2022/12/01 09:36:54;;;;;;;15.23;5.80;;;;;;;11.77;48.68;101042.19;4977663;28;20136;-80
2022/12/01 09:39:39;;;;;;;11.40;6.88;;;;;;;11.77;48.23;101041.41;4982836;28;20049;-80
2022/12/01 09:42:26;;;;;;;21.73;7.07;;;;;;;11.62;47.81;101036.34;4977327;28;20050;-82
2022/12/01 09:45:26;;;;;;;10.02;6.00;;;;;;;11.55;47.45;101037.59;4983072;28;20099;-80
2022/12/01 09:48:32;;;;;;;20.13;7.47;;;;;;;11.58;48.27;101036.94;4983705;28;20038;-82
2022/12/01 09:51:27;;;;;;;9.50;5.57;;;;;;;11.77;47.35;101035.94;4977693;28;20521;-80
2022/12/01 09:54:13;;;;;;;13.23;5.93;;;;;;;11.88;46.63;101038.06;4977919;28;20050;-81
2022/12/01 09:56:59;;;;;;;16.42;7.07;;;;;;;11.92;46.66;101025.41;4983961;28;20054;-80
2022/12/01 09:59:45;;;;;;;10.57;6.03;;;;;;;11.93;46.06;101029.75;4982587;28;20066;-82
2022/12/01 10:02:36;;;;;;;12.63;5.68;;;;;;;11.86;46.07;101020.41;4982604;28;20073;-83
2022/12/01 10:05:24;;;;;;;11.20;5.70;;;;;;;11.89;45.02;101017.06;4983377;28;20528;-81
2022/12/01 10:08:18;;;;;;;9.77;6.25;;;;;;;11.79;45.83;101014.63;4981539;28;20045;-82
2022/12/01 10:11:15;;;;;;;16.33;6.03;;;;;;;11.78;47.51;101008.41;4984870;28;20042;-81
2022/12/01 10:14:02;;;;;;;17.10;5.63;;;;;;;11.90;47.07;101008.56;4981566;28;20050;-80
2022/12/01 10:16:59;;;;;;;12.18;6.05;;;;;;;11.99;47.20;101003.94;4984743;28;20062;-82
2022/12/01 10:20:05;;;;;;;15.43;6.45;;;;;;;12.12;47.17;101004.94;4985638;28;20053;-83
2022/12/01 10:23:14;;;;;;;10.07;3.60;;;;;;;12.46;48.38;101006.09;4983429;28;20521;-80
2022/12/01 10:26:08;;;;;;;12.77;5.00;;;;;;;12.45;47.34;100994.38;4980289;28;20046;-80
2022/12/01 10:29:24;;;;;;;9.20;4.43;;;;;;;12.56;47.36;100995.66;4978579;28;20061;-82
2022/12/01 10:32:31;;;;;;;9.95;3.88;;;;;;;12.57;46.88;100997.28;4978192;28;20053;-80
2022/12/01 10:35:18;;;;;;;9.75;4.38;;;;;;;12.65;46.20;100995.66;4977167;28;20062;-82
2022/12/01 10:38:06;;;;;;;8.13;5.13;;;;;;;12.74;47.16;100991.81;4977887;28;20054;-79
2022/12/01 10:40:52;;;;;;;8.02;4.47;;;;;;;12.80;45.95;100990.50;4977845;28;20058;-78
2022/12/01 10:43:42;;;;;;;7.55;5.15;;;;;;;12.55;44.25;100985.06;4977961;28;20054;-80
2022/12/01 10:46:32;;;;;;;9.50;4.60;;;;;;;12.58;47.58;100977.06;4974052;28;20050;-79
2022/12/01 10:49:18;;;;;;;8.95;3.65;;;;;;;13.32;50.31;100971.28;4967502;28;20518;-80
2022/12/01 10:52:03;;;;;;;9.43;4.90;;;;;;;13.38;45.16;100978.19;4976030;28;20064;-80
2022/12/01 10:54:47;;;;;;;;;;;;;;;12.96;46.43;100987.25;4981057;28;20425;-79
2022/12/01 10:57:32;;;;;;;10.15;6.38;;;;;;;12.50;45.20;100977.84;4975919;28;19914;-80
2022/12/01 11:00:30;;;;;;;8.38;4.43;;;;;;;13.03;46.97;100980.19;4962551;28;20054;-79
2022/12/01 11:03:20;;;;;;;8.98;4.90;;;;;;;13.18;45.59;100984.34;4964441;28;20054;-79
2022/12/01 11:06:06;;;;;;;7.40;4.55;;;;;;;13.36;44.22;100977.69;4967935;28;20054;-79
2022/12/01 11:08:55;;;;;;;9.27;4.05;;;;;;;13.33;43.08;100972.91;4959021;29;20046;-83
2022/12/01 11:11:41;;;;;;;8.60;4.32;;;;;;;13.59;48.44;100972.78;4973023;28;20054;-78
2022/12/01 11:14:51;;;;;;;8.68;4.32;;;;;;;14.02;48.80;100973.34;4978017;28;20045;-78
2022/12/01 11:17:41;;;;;;;8.15;4.57;;;;;;;14.04;45.99;100971.06;4981510;28;20065;-80
2022/12/01 11:20:35;;;;;;;10.18;4.15;;;;;;;13.75;44.43;100964.84;4957539;28;20529;-78
2022/12/01 11:23:24;;;;;;;10.70;4.75;;;;;;;13.76;46.13;100969.97;4968589;28;20061;-80
2022/12/01 11:26:19;;;;;;;9.02;3.72;;;;;;;13.86;45.60;100972.34;4964647;28;20042;-79
2022/12/01 11:29:20;;;;;;;7.10;4.65;;;;;;;14.09;48.58;100970.88;4974033;28;20505;-76
2022/12/01 11:32:22;;;;;;;9.50;5.10;;;;;;;14.01;45.01;100970.94;4987477;28;20049;-79
2022/12/01 11:35:20;;;;;;;8.50;4.72;;;;;;;14.11;47.49;100970.56;4967763;28;20548;-79
2022/12/01 11:38:20;;;;;;;10.57;4.72;;;;;;;14.20;47.15;100965.81;4966329;28;20130;-78
2022/12/01 11:41:20;;;;;;;9.98;5.05;;;;;;;13.82;42.95;100959.63;4967230;28;20058;-77
2022/12/01 11:44:18;;;;;;;11.20;5.75;;;;;;;13.65;43.15;100961.34;4979116;28;20521;-78
2022/12/01 11:47:20;;;;;;;6.93;4.90;;;;;;;13.46;42.69;100962.91;4961421;28;20046;-78
2022/12/01 11:50:24;;;;;;;7.68;4.35;;;;;;;13.50;43.38;100952.91;4971653;28;20107;-78
2022/12/01 11:53:31;;;;;;;6.97;4.47;;;;;;;13.60;43.65;100941.59;4972701;28;20050;-79
2022/12/01 11:56:22;;;;;;;6.70;3.58;;;;;;;13.77;44.16;100946.16;4957288;28;20054;-78
2022/12/01 11:59:22;;;;;;;5.93;3.70;;;;;;;14.02;45.88;100947.91;4979899;28;20097;-77
2022/12/01 12:02:26;;;;;;;13.05;3.83;;;;;;;14.35;45.57;100940.59;4964071;28;20042;-78
2022/12/01 12:05:33;;;;;;;8.55;3.67;;;;;;;14.52;48.33;100937.75;4985564;28;20050;-76
2022/12/01 12:08:45;;;;;;;7.25;3.95;;;;;;;14.65;44.13;100926.84;4955600;28;20050;-77
2022/12/01 12:11:59;;;;;;;4.80;3.15;;;;;;;14.46;39.61;100917.19;4976084;28;20045;-78
2022/12/01 12:15:00;;;;;;;6.80;3.60;;;;;;;14.31;39.38;100922.47;4973992;28;20046;-77
2022/12/01 12:18:03;;;;;;;4.85;3.10;;;;;;;14.19;39.47;100923.19;4954191;28;20054;-77
2022/12/01 12:21:09;;;;;;;4.28;3.17;;;;;;;14.06;39.71;100925.06;4955320;28;20058;-78
2022/12/01 12:24:09;;;;;;;;;;;;;;;14.00;39.33;100929.13;4972789;28;20417;-78
2022/12/01 12:27:24;;;;;;;5.95;3.25;;;;;;;13.99;39.58;100922.06;4973185;28;19913;-78
2022/12/01 12:30:22;;;;;;;6.25;3.00;;;;;;;14.06;38.97;100925.06;4977275;28;20054;-78
2022/12/01 12:33:21;;;;;;;8.75;3.55;;;;;;;14.06;40.06;100922.34;4992125;28;20050;-78
2022/12/01 12:36:33;;;;;;;6.88;3.65;;;;;;;14.12;39.82;100926.44;4976071;28;20178;-78
2022/12/01 12:39:44;;;;;;;5.85;3.70;;;;;;;14.06;40.15;100918.81;4976507;28;20046;-77
2022/12/01 12:42:48;;;;;;;4.32;2.72;;;;;;;14.13;39.80;100917.13;4972394;28;20050;-79
2022/12/01 12:46:06;;;;;;;4.15;2.60;;;;;;;14.11;39.25;100908.47;4974127;28;20045;-78
2022/12/01 12:48:53;;;;;;;5.75;4.30;;;;;;;14.02;39.37;100904.97;4993419;28;20058;-79
2022/12/01 12:51:41;;;;;;;6.07;3.92;;;;;;;13.96;40.20;100905.53;5006275;22;20436;-79
2022/12/01 12:54:33;;;;;;;8.02;3.42;;;;;;;13.95;40.01;100893.78;5017631;28;20419;-79
2022/12/01 12:57:32;;;;;;;8.25;3.28;;;;;;;13.97;40.17;100890.69;5015463;28;20049;-78
2022/12/01 13:00:19;;;;;;;3.65;2.28;;;;;;;13.98;40.29;100898.56;5021393;28;20049;-79
2022/12/01 13:03:31;;;;;;;10.77;2.95;;;;;;;14.11;40.11;100896.72;5009512;28;20044;-78
2022/12/01 13:06:26;;;;;;;5.05;3.03;;;;;;;14.41;39.92;100886.50;5015611;28;20056;-79
2022/12/01 13:09:34;;;;;;;5.35;3.40;;;;;;;14.60;39.60;100891.47;5020616;28;20040;-79
2022/12/01 13:12:34;;;;;;;6.72;3.75;;;;;;;14.87;39.13;100896.34;5012685;28;20044;-79
2022/12/01 13:15:20;;;;;;;6.70;4.25;;;;;;;14.95;38.72;100882.53;5012755;28;20057;-79
2022/12/01 13:18:18;;;;;;;5.88;3.80;;;;;;;15.10;38.77;100886.53;5015320;28;20045;-79
2022/12/01 13:21:04;;;;;;;7.28;3.55;;;;;;;15.21;38.11;100884.16;5018034;28;20417;-80
2022/12/01 13:23:51;;;;;;;5.80;3.33;;;;;;;15.33;37.85;100882.22;5015682;28;20520;-79